Jerome, AZ (86331)

8:34 PM MST on June 29, 2015 (GMT -0700)
The Gulch | | Change Station
CLOSE
Current Station
Personal Weather Station
Location: Jerome, AZ
Elevation: 4951 ft
Nearby Weather Stations

Elev 4951 ft 34.75 °N, 112.11 °W | Updated 37 seconds ago

Partly Cloudy
Partly Cloudy
79.3 °F
Feels Like 80 °F
N
0.0
Wind Variable Wind from South
Gusts 0.0 mph

Today
High -- | Low -- °F
--% Chance of Precip.
Yesterday
High -- | Low -- °F
Precip. -- in
5:17 AM 7:45 PM
Waxing Gibbous, 95% visible
Pressure 29.90 in
Visibility 10.0 miles
Clouds Scattered Clouds 3700 ft
Mostly Cloudy 7500 ft
Mostly Cloudy 11000 ft
Heat Index 80 °F
Dew Point 55 °F
Humidity 43%
Rainfall in
Snow Depth Not available.
UV 1 out of 12
Pollen 4.60 out of 12
Air Quality Not available.
Flu Activity Local Activity
METAR KPRC 300053Z COR 22011KT 10SM SCT037 BKN075 BKN110 23/19 A3013 RMK AO2 PK WND 15057/2354 WSHFT 0025 RAE51 SLP125 TS OVH MOV W OCNL LTGCG P0132 T02330189

More Conditions Fewer Conditions

Pressure 29.90 in
Visibility 10.0 miles
Clouds Scattered Clouds 3700 ft
Mostly Cloudy 7500 ft
Mostly Cloudy 11000 ft
Heat Index 80 °F
Dew Point 55 °F
Humidity 43%
Rainfall in
Snow Depth Not available.
UV 1 out of 12
Pollen 4.60 out of 12
Air Quality Not available.
Flu Activity Local Activity
METAR KPRC 300053Z COR 22011KT 10SM SCT037 BKN075 BKN110 23/19 A3013 RMK AO2 PK WND 15057/2354 WSHFT 0025 RAE51 SLP125 TS OVH MOV W OCNL LTGCG P0132 T02330189

More Conditions Fewer Conditions

10-Day Weather Forecast

×

Almanac

Astronomy

Jun. 29, 2015 Rise Set
Actual Time
Civil Twilight
Nautical Twilight
Astronomical Twilight
Moon
Length of Visible Light
Length of Day
Tomorrow will be .
, % of the Moon is Illuminated

Today's Extremes

State Highs State Lows

Community

WunderPhotos

Upload Photos

1,833,955 photos uploaded!

WunderBlogs® & News

Nearby

Air Quality

  Air Quality AQ Index Pollutant
Not available.

Snow Depth

Station Depth Elevation

Earthquake Activity

City Distance Mag. Time & Date
Minimum magnitude displayed is 2.5.

Coastal Water Temperatures

Place Temperature

Stations

Nearby Weather Stations

Station Location Temp. Windchill Dew Point Humidity Wind Precip. Elev Updated Type